Time;durP1;ratioP1;P1;durP2;ratioP2;P2;SDS_P1;SDS_P2;PMS_P1;PMS_P2;Temp;Humidity;BMP_temperature;BMP_pressure;BME280_temperature;BME280_humidity;BME280_pressure;Samples;Min_cycle;Max_cycle;Signal;HPM_P1;HPM_P2
2023/05/25 00:02:03;;;;;;;613.00;61.40;;;;;;;12.41;69.94;98467.69;4198067;28;20631;-84
2023/05/25 00:04:09;;;;;;;774.60;74.60;;;;;;;12.44;69.88;98475.31;4203476;28;20632;-84
2023/05/25 00:06:12;;;;;;;1882.77;165.47;;;;;;;12.36;71.35;98470.63;4208647;28;21284;-84
2023/05/25 00:08:15;;;;;;;1519.07;98.73;;;;;;;12.32;69.87;98471.78;4206787;28;21094;-84
2023/05/25 00:10:19;;;;;;;810.43;86.50;;;;;;;12.35;71.08;98468.94;4204077;28;20980;-84
2023/05/25 00:12:22;;;;;;;680.90;64.37;;;;;;;12.29;71.50;98471.16;4199195;28;20734;-84
2023/05/25 00:14:25;;;;;;;1372.90;131.60;;;;;;;12.33;70.31;98470.84;4190474;28;21196;-84
2023/05/25 00:16:28;;;;;;;1999.90;254.23;;;;;;;12.35;69.98;98468.13;4187579;28;20687;-84
2023/05/25 00:18:32;;;;;;;543.33;59.47;;;;;;;12.31;70.73;98462.28;4183283;28;20679;-84
2023/05/25 00:20:37;;;;;;;687.23;65.73;;;;;;;12.32;71.06;98469.16;4200635;28;20723;-84
2023/05/25 00:22:44;;;;;;;1999.90;279.30;;;;;;;12.32;71.11;98463.09;4189293;28;21007;-84
2023/05/25 00:24:48;;;;;;;1678.40;116.17;;;;;;;12.29;70.35;98465.91;4201179;28;20729;-84
2023/05/25 00:26:51;;;;;;;733.37;71.73;;;;;;;12.31;70.65;98472.72;4199493;28;20631;-85
2023/05/25 00:28:54;;;;;;;888.10;72.67;;;;;;;12.35;72.12;98462.88;4179628;28;20677;-85
2023/05/25 00:30:57;;;;;;;362.93;53.50;;;;;;;12.31;72.06;98464.03;4189569;28;20641;-85
2023/05/25 00:33:01;;;;;;;586.03;45.67;;;;;;;12.33;69.96;98467.41;4188497;28;20623;-84
2023/05/25 00:35:06;;;;;;;519.27;62.00;;;;;;;12.36;72.05;98462.78;4191266;28;20636;-85
2023/05/25 00:37:11;;;;;;;895.00;84.37;;;;;;;12.41;70.17;98470.31;4191350;28;20663;-85
2023/05/25 00:39:15;;;;;;;605.67;50.23;;;;;;;12.42;70.56;98470.19;4180416;28;20726;-85
2023/05/25 00:41:18;;;;;;;424.47;55.50;;;;;;;12.38;69.91;98462.66;4205837;28;20644;-85
2023/05/25 00:43:21;;;;;;;298.13;48.63;;;;;;;12.36;70.82;98459.34;4205963;28;20649;-84
2023/05/25 00:45:25;;;;;;;446.87;38.77;;;;;;;12.39;69.85;98470.41;4201600;28;20623;-84
2023/05/25 00:47:28;;;;;;;921.20;87.37;;;;;;;12.41;69.70;98457.22;4193485;28;20628;-84
2023/05/25 00:49:34;;;;;;;431.03;44.10;;;;;;;12.37;71.31;98458.38;4204295;28;21262;-84
2023/05/25 00:51:37;;;;;;;1055.47;104.20;;;;;;;12.37;70.71;98459.22;4204168;28;20635;-84
2023/05/25 00:53:43;;;;;;;584.57;57.67;;;;;;;12.39;70.46;98457.34;4188132;28;20642;-84
2023/05/25 00:55:54;;;;;;;1251.87;60.47;;;;;;;12.34;71.03;98453.34;4188251;28;20631;-84
2023/05/25 00:58:00;;;;;;;404.50;30.43;;;;;;;12.33;71.00;98454.31;4202615;28;20674;-85
2023/05/25 01:00:10;;;;;;;472.57;55.07;;;;;;;12.33;70.30;98454.31;4202742;28;20637;-84
2023/05/25 01:02:15;;;;;;;891.33;86.20;;;;;;;12.30;69.72;98462.38;4179588;28;20635;-84
2023/05/25 01:04:21;;;;;;;923.03;85.70;;;;;;;12.30;70.66;98454.53;4190741;28;21017;-84
2023/05/25 01:06:27;;;;;;;1302.73;91.63;;;;;;;12.26;70.58;98458.28;4186166;28;20691;-84
2023/05/25 01:08:34;;;;;;;708.27;69.30;;;;;;;12.32;70.65;98463.09;4199547;28;20640;-84
2023/05/25 01:10:39;;;;;;;1940.33;116.67;;;;;;;12.25;71.84;98456.59;4198818;28;20619;-84
2023/05/25 01:12:44;;;;;;;525.50;56.17;;;;;;;12.21;71.41;98456.91;4198110;28;20679;-84
2023/05/25 01:14:48;;;;;;;1564.10;127.50;;;;;;;12.18;70.19;98454.50;4188517;28;20624;-84
2023/05/25 01:16:51;;;;;;;1524.83;118.03;;;;;;;12.20;71.66;98452.66;4206401;28;21558;-84
2023/05/25 01:18:54;;;;;;;1861.77;176.17;;;;;;;12.24;71.20;98454.94;4193923;28;21100;-84
2023/05/25 01:21:11;;;;;;;348.23;45.47;;;;;;;12.14;70.73;98453.91;4196549;28;20742;-84
2023/05/25 01:23:16;;;;;;;718.10;72.97;;;;;;;12.18;72.30;98447.53;4208013;28;20677;-84
2023/05/25 01:25:23;;;;;;;861.63;84.13;;;;;;;12.18;70.01;98439.69;4201154;28;21193;-85
2023/05/25 01:27:32;;;;;;;1266.13;98.17;;;;;;;12.19;72.02;98446.56;4198818;28;20668;-84
2023/05/25 01:29:36;;;;;;;578.23;58.30;;;;;;;12.19;70.83;98446.56;4199283;28;20685;-84
2023/05/25 01:31:39;;;;;;;518.83;58.03;;;;;;;12.16;72.10;98438.09;4190150;28;20632;-84
2023/05/25 01:33:42;;;;;;;1597.87;120.20;;;;;;;12.18;70.96;98450.16;4188288;28;20727;-84
2023/05/25 01:35:47;;;;;;;893.53;67.07;;;;;;;12.11;71.38;98441.03;4193811;28;21065;-84
2023/05/25 01:37:52;;;;;;;1870.33;119.67;;;;;;;12.10;72.62;98451.59;4218810;28;20626;-84
2023/05/25 01:39:55;;;;;;;944.43;75.77;;;;;;;12.16;71.88;98441.53;4194768;28;20631;-84
2023/05/25 01:41:58;;;;;;;1557.80;99.57;;;;;;;12.10;71.24;98443.75;4203641;28;20656;-84
2023/05/25 01:44:01;;;;;;;938.60;67.53;;;;;;;12.05;72.77;98444.06;4204699;28;20700;-84
2023/05/25 01:46:11;;;;;;;1999.90;134.00;;;;;;;12.04;72.54;98450.25;4188017;28;20624;-83
2023/05/25 01:48:20;;;;;;;1288.10;102.10;;;;;;;12.09;71.46;98450.78;4193765;28;20634;-84
2023/05/25 01:50:28;;;;;;;1583.40;120.83;;;;;;;12.06;71.37;98443.13;4220363;28;20652;-84
2023/05/25 01:52:36;;;;;;;1670.37;114.83;;;;;;;12.09;71.96;98444.69;4187045;28;20627;-84
2023/05/25 01:54:45;;;;;;;934.10;91.57;;;;;;;12.10;71.14;98451.59;4201793;28;20637;-84
2023/05/25 01:56:49;;;;;;;1608.80;118.77;;;;;;;12.05;72.13;98457.16;4190118;28;20649;-84
2023/05/25 01:58:54;;;;;;;1214.90;133.03;;;;;;;12.01;73.23;98453.09;4185701;28;20687;-84
2023/05/25 02:00:58;;;;;;;554.97;66.47;;;;;;;11.97;73.78;98459.44;4188664;28;20731;-85
2023/05/25 02:03:01;;;;;;;1058.37;101.10;;;;;;;12.00;72.51;98454.00;4200530;28;20750;-85
2023/05/25 02:05:05;;;;;;;724.60;66.30;;;;;;;11.95;71.84;98458.72;4203409;28;20659;-85
2023/05/25 02:07:08;;;;;;;1264.83;116.67;;;;;;;11.90;73.39;98459.97;4183709;28;20628;-84
2023/05/25 02:09:11;;;;;;;920.37;81.80;;;;;;;11.86;73.54;98451.50;4208770;28;20623;-84
2023/05/25 02:11:16;;;;;;;1437.47;129.53;;;;;;;11.86;73.10;98448.91;4203627;28;20610;-84
2023/05/25 02:13:20;;;;;;;535.93;60.87;;;;;;;11.87;72.42;98455.78;4189627;28;20964;-84
2023/05/25 02:15:24;;;;;;;1992.47;128.10;;;;;;;11.88;71.99;98452.22;4189094;28;20669;-84
2023/05/25 02:17:28;;;;;;;739.90;67.20;;;;;;;11.83;73.20;98449.09;4200889;28;20639;-84
2023/05/25 02:19:32;;;;;;;1164.70;122.97;;;;;;;11.81;73.96;98443.13;4199985;28;20639;-84
2023/05/25 02:21:36;;;;;;;1055.40;93.37;;;;;;;11.81;73.60;98450.97;4192343;28;20631;-84
2023/05/25 02:23:39;;;;;;;1841.07;169.57;;;;;;;11.80;73.94;98446.69;4203985;28;20718;-84
2023/05/25 02:25:43;;;;;;;485.47;59.67;;;;;;;11.83;72.58;98453.47;4216385;28;20849;-84
2023/05/25 02:27:47;;;;;;;1170.80;96.37;;;;;;;11.83;74.33;98449.09;4187495;28;20620;-84
2023/05/25 02:29:52;;;;;;;480.33;56.60;;;;;;;11.82;72.99;98444.81;4202656;28;21247;-84
2023/05/25 02:31:55;;;;;;;1139.13;97.87;;;;;;;11.81;73.06;98456.19;4189892;28;20620;-84
2023/05/25 02:33:58;;;;;;;1093.80;101.57;;;;;;;11.78;72.71;98445.94;4201509;28;20636;-85
2023/05/25 02:36:01;;;;;;;709.50;72.50;;;;;;;11.82;73.89;98449.19;4184624;28;20637;-84
2023/05/25 02:38:04;;;;;;;994.80;85.43;;;;;;;11.86;72.87;98446.28;4190329;28;20647;-85
2023/05/25 02:40:10;;;;;;;1455.67;147.70;;;;;;;11.84;72.76;98445.53;4199292;28;20727;-84
2023/05/25 02:42:13;;;;;;;495.77;66.47;;;;;;;11.86;73.36;98448.03;4199723;28;20627;-85
2023/05/25 02:44:18;;;;;;;529.90;58.93;;;;;;;11.87;72.27;98449.72;4188531;28;20641;-84
2023/05/25 02:46:21;;;;;;;1064.00;105.77;;;;;;;11.87;73.70;98457.56;4183287;28;21112;-84
2023/05/25 02:48:25;;;;;;;701.23;67.43;;;;;;;11.83;73.27;98456.94;4204209;28;20655;-84
2023/05/25 02:50:28;;;;;;;549.23;61.20;;;;;;;11.82;72.33;98455.25;4186234;28;20659;-84
2023/05/25 02:52:35;;;;;;;834.50;82.37;;;;;;;11.87;73.62;98460.19;4187696;28;20636;-84
2023/05/25 02:54:38;;;;;;;729.40;74.80;;;;;;;11.87;73.27;98458.38;4183890;28;20672;-84
2023/05/25 02:56:43;;;;;;;1226.60;115.07;;;;;;;11.89;73.06;98456.53;4198731;28;20679;-84
2023/05/25 02:58:48;;;;;;;652.83;71.43;;;;;;;11.98;72.87;98471.59;4183482;28;20641;-84
2023/05/25 03:01:01;;;;;;;557.30;70.23;;;;;;;11.94;73.48;98471.91;4184023;28;20762;-84
2023/05/25 03:03:04;;;;;;;529.07;57.17;;;;;;;11.97;72.71;98476.91;4201734;28;20689;-84
2023/05/25 03:05:08;;;;;;;744.73;79.47;;;;;;;11.90;72.40;98476.47;4184755;28;20668;-84
2023/05/25 03:07:12;;;;;;;869.57;76.47;;;;;;;11.92;73.15;98476.38;4187527;28;20670;-84
2023/05/25 03:09:15;;;;;;;1031.27;96.47;;;;;;;11.94;74.25;98477.13;4183963;28;20652;-84
2023/05/25 03:11:21;;;;;;;918.37;81.20;;;;;;;11.95;72.80;98471.78;4183890;28;20705;-84
2023/05/25 03:13:25;;;;;;;1097.23;102.63;;;;;;;11.99;74.67;98472.41;4201316;28;21311;-84
2023/05/25 03:15:28;;;;;;;1078.77;96.33;;;;;;;12.00;74.81;98481.94;4195692;28;20632;-84
2023/05/25 03:17:32;;;;;;;842.93;75.40;;;;;;;12.01;75.71;98484.47;4202554;28;20628;-84
2023/05/25 03:19:35;;;;;;;1132.47;98.10;;;;;;;12.00;75.16;98479.31;4203084;28;20652;-84
2023/05/25 03:21:39;;;;;;;378.70;43.53;;;;;;;12.01;76.18;98484.47;4187826;28;20714;-84
2023/05/25 03:23:42;;;;;;;639.30;59.63;;;;;;;12.01;75.08;98494.06;4185787;28;20633;-84
2023/05/25 03:25:46;;;;;;;975.83;93.27;;;;;;;12.01;76.29;98488.81;4183563;28;20683;-84
2023/05/25 03:27:52;;;;;;;761.87;75.13;;;;;;;12.00;74.99;98488.00;4190381;28;20645;-84
2023/05/25 03:29:55;;;;;;;850.37;82.90;;;;;;;11.99;75.59;98491.53;4201959;28;21095;-84
2023/05/25 03:31:58;;;;;;;886.40;98.93;;;;;;;11.99;75.29;98488.94;4205131;28;20640;-84
2023/05/25 03:34:09;;;;;;;1087.80;108.17;;;;;;;11.99;74.71;98496.78;4213958;28;20634;-84
2023/05/25 03:36:16;;;;;;;1090.83;107.90;;;;;;;11.99;75.51;98501.16;4186335;28;20620;-84
2023/05/25 03:38:19;;;;;;;1081.37;98.93;;;;;;;11.96;76.39;98496.97;4188979;28;20779;-84
2023/05/25 03:40:23;;;;;;;1024.33;98.67;;;;;;;11.97;75.36;98503.06;4190685;28;20632;-84
2023/05/25 03:42:26;;;;;;;372.83;44.40;;;;;;;11.96;75.22;98496.97;4190458;28;20665;-84
2023/05/25 03:44:29;;;;;;;617.80;62.33;;;;;;;11.98;76.16;98489.03;4201717;28;20625;-84
2023/05/25 03:46:32;;;;;;;751.03;75.87;;;;;;;12.00;74.27;98497.63;4188363;28;20658;-84
2023/05/25 03:48:35;;;;;;;360.93;50.67;;;;;;;11.95;74.56;98490.09;4200288;28;20698;-84
2023/05/25 03:50:41;;;;;;;323.67;46.17;;;;;;;12.01;75.18;98504.50;4184637;28;21190;-84
2023/05/25 03:52:44;;;;;;;356.63;45.10;;;;;;;12.05;75.66;98500.75;4185733;28;20671;-83
2023/05/25 03:54:47;;;;;;;771.80;83.43;;;;;;;12.03;75.74;98505.25;4203453;28;20721;-84
2023/05/25 03:56:50;;;;;;;912.73;101.53;;;;;;;12.04;75.00;98507.78;4198590;28;21020;-84
2023/05/25 03:58:53;;;;;;;318.13;38.70;;;;;;;12.05;74.49;98501.59;4189875;28;20639;-84
2023/05/25 04:00:57;;;;;;;1026.80;95.17;;;;;;;12.09;76.49;98505.69;4186715;28;20688;-84
2023/05/25 04:03:00;;;;;;;447.67;49.10;;;;;;;12.10;74.64;98504.72;4199374;28;20758;-84
2023/05/25 04:05:03;;;;;;;924.77;85.83;;;;;;;12.13;76.10;98501.91;4200505;28;20743;-84
2023/05/25 04:07:08;;;;;;;973.00;100.93;;;;;;;12.17;77.36;98513.84;4192722;28;20672;-84
2023/05/25 04:09:11;;;;;;;856.63;81.30;;;;;;;12.19;75.65;98511.13;4189180;28;20626;-84
2023/05/25 04:11:15;;;;;;;489.97;55.63;;;;;;;12.20;75.70;98511.00;4188832;28;20633;-84
2023/05/25 04:13:18;;;;;;;980.63;96.73;;;;;;;12.22;74.76;98503.06;4205013;28;20653;-84
2023/05/25 04:15:21;;;;;;;866.43;83.23;;;;;;;12.26;74.62;98510.59;4182945;28;20721;-84
2023/05/25 04:17:33;;;;;;;1069.23;98.97;;;;;;;12.27;74.65;98512.28;4186814;28;20729;-84
2023/05/25 04:19:38;;;;;;;896.20;88.93;;;;;;;12.30;74.58;98512.91;4198299;28;21218;-84
2023/05/25 04:21:42;;;;;;;442.30;44.63;;;;;;;12.33;76.50;98512.69;4214676;28;20635;-84
2023/05/25 04:23:47;;;;;;;888.47;88.33;;;;;;;12.34;75.93;98509.13;4183554;28;20641;-84
2023/05/25 04:25:50;;;;;;;291.37;37.83;;;;;;;12.36;76.35;98512.47;4186488;28;20679;-84
2023/05/25 04:27:55;;;;;;;674.47;70.00;;;;;;;12.41;76.47;98522.63;4192977;28;20628;-84
2023/05/25 04:30:18;;;;;;;894.27;90.70;;;;;;;12.44;75.08;98525.84;4203911;28;20633;-84
2023/05/25 04:32:44;;;;;;;474.33;58.27;;;;;;;12.49;76.37;98522.94;4202335;28;20699;-84
2023/05/25 04:35:07;;;;;;;559.27;64.90;;;;;;;12.52;76.69;98531.38;4201032;28;20650;-84
2023/05/25 04:37:16;;;;;;;509.13;47.23;;;;;;;12.50;75.42;98527.22;4184592;28;21404;-84
2023/05/25 04:39:21;;;;;;;737.67;88.30;;;;;;;12.55;75.56;98530.34;4184296;28;21039;-84
2023/05/25 04:41:29;;;;;;;301.50;39.23;;;;;;;12.59;75.51;98530.03;4198437;28;20644;-84
2023/05/25 04:43:37;;;;;;;893.63;85.83;;;;;;;12.62;75.49;98529.00;4185998;28;20873;-84
2023/05/25 04:45:46;;;;;;;588.97;74.53;;;;;;;12.69;75.82;98536.31;4197904;28;20653;-84
2023/05/25 04:47:49;;;;;;;758.63;76.53;;;;;;;12.69;75.18;98526.69;4182430;28;21334;-84
2023/05/25 04:49:53;;;;;;;613.40;70.40;;;;;;;12.75;74.72;98531.47;4194931;28;20682;-84
2023/05/25 04:51:56;;;;;;;730.00;75.40;;;;;;;12.82;74.57;98540.63;4185200;28;20637;-84
2023/05/25 04:54:00;;;;;;;219.03;25.73;;;;;;;12.90;76.90;98545.28;4204223;28;20631;-84
2023/05/25 04:56:05;;;;;;;543.90;62.20;;;;;;;12.98;76.50;98538.59;4191927;28;20673;-84
2023/05/25 04:58:09;;;;;;;719.47;76.43;;;;;;;13.03;73.30;98546.13;4202025;28;20664;-84
2023/05/25 05:00:15;;;;;;;63.90;22.13;;;;;;;13.07;74.76;98543.16;4200040;28;20634;-84
2023/05/25 05:02:20;;;;;;;737.03;67.90;;;;;;;13.13;73.93;98547.16;4184352;28;21363;-84
2023/05/25 05:04:23;;;;;;;605.77;59.33;;;;;;;13.16;73.84;98549.56;4185465;28;20740;-84
2023/05/25 05:06:27;;;;;;;590.77;58.23;;;;;;;13.18;74.86;98540.63;4205387;28;20702;-84
2023/05/25 05:08:31;;;;;;;497.83;56.33;;;;;;;13.26;74.72;98548.75;4201407;28;20636;-84
2023/05/25 05:10:34;;;;;;;527.77;60.77;;;;;;;13.24;73.95;98553.28;4201752;28;21495;-84
2023/05/25 05:12:39;;;;;;;605.50;65.00;;;;;;;13.28;74.93;98550.31;4181437;28;21239;-84
2023/05/25 05:14:42;;;;;;;527.47;65.53;;;;;;;13.32;73.32;98557.03;4189877;28;20740;-83
2023/05/25 05:16:46;;;;;;;593.07;65.30;;;;;;;13.39;73.79;98560.03;4204871;28;21632;-83
2023/05/25 05:18:50;;;;;;;615.07;59.47;;;;;;;13.34;73.24;98562.16;4206166;28;20621;-84
2023/05/25 05:20:53;;;;;;;275.80;36.67;;;;;;;13.37;73.98;98567.19;4185709;28;20623;-83
2023/05/25 05:22:57;;;;;;;568.47;61.80;;;;;;;13.41;75.08;98572.09;4191807;28;21260;-83
2023/05/25 05:25:00;;;;;;;589.10;58.87;;;;;;;13.52;73.63;98577.41;4203767;28;20755;-83
2023/05/25 05:27:04;;;;;;;439.03;55.70;;;;;;;13.62;73.65;98577.56;4202975;28;20663;-83
2023/05/25 05:29:19;;;;;;;504.73;58.50;;;;;;;13.70;73.77;98579.50;4181609;28;21814;-83
2023/05/25 05:31:23;;;;;;;1314.53;88.27;;;;;;;13.77;72.92;98588.63;4200724;28;21062;-83
2023/05/25 05:33:26;;;;;;;657.90;32.20;;;;;;;13.65;72.13;98570.28;4196105;28;21256;-83
2023/05/25 05:35:31;;;;;;;402.03;60.77;;;;;;;13.67;72.98;98584.97;4145349;28;20646;-84
2023/05/25 05:37:47;;;;;;;644.07;55.47;;;;;;;13.80;72.59;98588.38;4144075;28;20757;-84
2023/05/25 05:39:52;;;;;;;616.03;56.00;;;;;;;13.98;71.93;98596.66;4193914;28;20626;-84
2023/05/25 05:41:56;;;;;;;498.17;51.50;;;;;;;14.09;71.11;98587.09;4202554;28;21047;-83
2023/05/25 05:44:00;;;;;;;410.53;47.87;;;;;;;14.23;71.44;98603.47;4201376;28;20655;-84
2023/05/25 05:46:05;;;;;;;363.63;49.03;;;;;;;14.38;70.44;98597.06;4175522;28;20692;-89
2023/05/25 05:48:09;;;;;;;474.03;51.50;;;;;;;14.63;70.75;98607.41;4193949;28;20663;-83
2023/05/25 05:50:13;;;;;;;448.93;49.73;;;;;;;14.64;70.94;98602.03;4183029;28;20731;-84
2023/05/25 05:52:17;;;;;;;444.60;49.70;;;;;;;15.01;71.84;98637.66;4172393;28;20644;-84
2023/05/25 05:54:20;;;;;;;441.27;48.73;;;;;;;15.16;69.46;98624.16;4177525;28;20990;-83
2023/05/25 05:56:23;;;;;;;385.50;45.17;;;;;;;15.35;68.90;98631.44;4186594;28;20628;-83
2023/05/25 05:58:27;;;;;;;387.70;51.27;;;;;;;15.56;67.53;98628.81;4169939;28;20732;-81
2023/05/25 06:00:31;;;;;;;776.40;45.57;;;;;;;15.78;67.60;98635.81;4187267;28;20631;-82
2023/05/25 06:02:36;;;;;;;372.43;37.37;;;;;;;16.06;67.21;98636.09;4192237;28;20683;-83
2023/05/25 06:04:43;;;;;;;353.60;39.80;;;;;;;16.37;65.96;98648.44;4201428;28;20630;-82
2023/05/25 06:06:47;;;;;;;376.60;42.00;;;;;;;16.46;64.79;98637.16;4187367;28;20833;-81
2023/05/25 06:08:51;;;;;;;407.97;43.77;;;;;;;16.39;66.67;98639.47;4186150;28;20670;-81
2023/05/25 06:10:54;;;;;;;372.77;37.97;;;;;;;16.62;65.58;98635.75;4203009;28;20706;-81
2023/05/25 06:12:58;;;;;;;410.57;31.83;;;;;;;16.74;65.40;98638.19;4205318;28;20677;-81
2023/05/25 06:15:02;;;;;;;351.43;28.80;;;;;;;16.79;64.72;98643.06;4188240;28;21314;-81
2023/05/25 06:17:07;;;;;;;356.33;40.07;;;;;;;17.05;67.00;98658.34;4207950;28;20615;-81
2023/05/25 06:19:13;;;;;;;360.50;33.70;;;;;;;17.33;64.56;98657.69;4185217;28;20620;-81
2023/05/25 06:21:17;;;;;;;379.03;37.67;;;;;;;17.59;64.35;98657.94;4186052;28;21595;-81
2023/05/25 06:23:20;;;;;;;374.07;37.83;;;;;;;17.83;64.46;98660.19;4190894;28;20671;-81
2023/05/25 06:25:23;;;;;;;348.80;34.90;;;;;;;17.99;64.71;98659.53;4204689;28;20686;-82
2023/05/25 06:27:27;;;;;;;375.40;37.60;;;;;;;18.23;63.08;98665.31;4188370;28;21036;-82
2023/05/25 06:29:30;;;;;;;353.20;36.93;;;;;;;18.13;63.93;98661.84;4193418;28;20672;-82
2023/05/25 06:31:35;;;;;;;373.50;39.63;;;;;;;18.30;62.78;98663.78;4214767;28;20611;-82
2023/05/25 06:33:38;;;;;;;358.37;34.33;;;;;;;18.62;63.54;98670.44;4201585;28;20756;-83
2023/05/25 06:35:43;;;;;;;347.37;36.67;;;;;;;18.74;64.05;98669.34;4190163;28;20715;-82
2023/05/25 06:37:47;;;;;;;349.00;38.23;;;;;;;18.72;61.83;98671.28;4208214;28;20643;-82
2023/05/25 06:39:51;;;;;;;344.87;41.30;;;;;;;18.73;62.72;98667.66;4208373;28;20624;-82
2023/05/25 06:41:56;;;;;;;346.57;36.73;;;;;;;18.88;62.51;98670.72;4203213;28;20630;-82
2023/05/25 06:44:08;;;;;;;349.50;32.43;;;;;;;18.95;60.88;98668.19;4205428;28;21211;-82
2023/05/25 06:46:17;;;;;;;374.53;33.80;;;;;;;18.80;60.48;98662.66;4192093;28;20622;-81
2023/05/25 06:48:21;;;;;;;364.77;35.83;;;;;;;18.86;61.95;98672.69;4197796;28;20628;-81
2023/05/25 06:50:24;;;;;;;345.63;37.87;;;;;;;19.02;60.85;98673.78;4187030;28;21251;-81
2023/05/25 06:52:28;;;;;;;350.03;39.77;;;;;;;19.24;60.82;98678.72;4193569;28;20630;-81
2023/05/25 06:54:31;;;;;;;344.57;37.90;;;;;;;19.42;62.01;98685.78;4199066;28;20735;-80
2023/05/25 06:56:35;;;;;;;345.67;30.80;;;;;;;19.02;61.25;98677.25;4182470;28;21176;-80
2023/05/25 06:58:38;;;;;;;344.37;37.47;;;;;;;18.88;62.40;98676.81;4201697;28;20763;-80
2023/05/25 07:00:41;;;;;;;345.03;39.47;;;;;;;18.73;62.50;98670.31;4189804;28;21361;-83
2023/05/25 07:02:46;;;;;;;358.60;40.77;;;;;;;18.63;62.85;98666.84;4202065;28;21169;-81
2023/05/25 07:04:50;;;;;;;367.30;40.33;;;;;;;18.46;62.67;98674.63;4190232;28;20761;-81
2023/05/25 07:06:53;;;;;;;399.53;43.07;;;;;;;18.29;63.59;98666.56;4197560;28;20656;-81
2023/05/25 07:08:58;;;;;;;350.43;40.43;;;;;;;18.27;63.57;98671.16;4196510;28;20641;-80
2023/05/25 07:11:01;;;;;;;358.30;41.60;;;;;;;18.20;63.25;98662.94;4208089;28;20664;-80
2023/05/25 07:13:04;;;;;;;373.30;47.43;;;;;;;18.08;63.91;98668.47;4207483;28;20690;-80
2023/05/25 07:15:08;;;;;;;381.67;40.50;;;;;;;18.06;64.74;98673.88;4194935;28;20632;-81
2023/05/25 07:17:12;;;;;;;360.73;40.73;;;;;;;18.08;65.09;98671.91;4203823;28;20711;-80
2023/05/25 07:19:15;;;;;;;360.43;43.77;;;;;;;18.04;64.35;98662.63;4202543;28;20667;-81
2023/05/25 07:21:18;;;;;;;443.57;49.13;;;;;;;18.03;64.26;98665.41;4186553;28;20759;-80
2023/05/25 07:23:21;;;;;;;385.87;49.43;;;;;;;18.02;64.42;98658.44;4201373;28;21204;-80
2023/05/25 07:25:26;;;;;;;423.40;46.90;;;;;;;17.99;64.36;98664.00;4206071;28;20620;-81
2023/05/25 07:27:30;;;;;;;398.43;49.00;;;;;;;17.82;64.28;98661.19;4203082;28;20648;-81
2023/05/25 07:29:33;;;;;;;384.03;38.63;;;;;;;17.83;64.57;98654.94;4204683;28;20671;-81
2023/05/25 07:31:36;;;;;;;424.10;42.13;;;;;;;17.96;65.99;98670.38;4198111;28;21001;-81
2023/05/25 07:33:39;;;;;;;356.20;42.23;;;;;;;17.87;64.43;98670.34;4196184;28;20624;-81
2023/05/25 07:35:43;;;;;;;351.43;43.80;;;;;;;17.93;64.91;98667.16;4180660;28;20634;-80
2023/05/25 07:37:46;;;;;;;391.70;47.03;;;;;;;18.07;65.96;98674.69;4180057;28;21220;-81
2023/05/25 07:39:49;;;;;;;377.03;35.90;;;;;;;18.13;65.63;98671.53;4204025;28;20638;-81
2023/05/25 07:41:54;;;;;;;360.73;45.80;;;;;;;18.18;64.50;98674.63;4184692;28;20777;-81
2023/05/25 07:43:57;;;;;;;352.33;38.97;;;;;;;17.95;64.16;98659.94;4187921;28;20638;-81
2023/05/25 07:46:01;;;;;;;640.43;62.90;;;;;;;17.98;65.39;98663.16;4188577;28;20622;-80
2023/05/25 07:48:05;;;;;;;485.07;48.10;;;;;;;17.96;65.52;98667.72;4196868;28;20734;-81
2023/05/25 07:50:10;;;;;;;409.20;39.60;;;;;;;18.09;66.54;98670.13;4195053;28;20617;-81
2023/05/25 07:52:13;;;;;;;364.67;44.57;;;;;;;18.11;64.83;98670.81;4195854;28;20626;-81
2023/05/25 07:54:16;;;;;;;380.17;42.80;;;;;;;18.24;66.11;98671.44;4202998;28;20653;-81
2023/05/25 07:56:20;;;;;;;421.63;46.20;;;;;;;18.20;65.22;98670.88;4197055;28;21016;-81
2023/05/25 07:58:24;;;;;;;379.33;45.83;;;;;;;18.12;65.20;98667.22;4200688;28;21065;-81
2023/05/25 08:00:27;;;;;;;387.47;34.23;;;;;;;18.09;65.34;98670.13;4197193;28;20633;-81
2023/05/25 08:02:30;;;;;;;371.53;40.27;;;;;;;18.11;65.79;98662.91;4198676;28;20775;-81
2023/05/25 08:04:34;;;;;;;436.67;41.27;;;;;;;18.18;65.83;98672.00;4205212;28;20735;-81
2023/05/25 08:06:37;;;;;;;390.87;44.70;;;;;;;18.08;65.01;98671.09;4200633;28;20649;-81
2023/05/25 08:08:40;;;;;;;399.03;42.73;;;;;;;18.05;65.29;98668.72;4194485;28;20654;-81
2023/05/25 08:10:44;;;;;;;364.43;43.27;;;;;;;18.27;66.16;98671.16;4194730;28;21064;-81
2023/05/25 08:12:47;;;;;;;347.50;32.50;;;;;;;18.86;65.38;98670.84;4198013;28;20636;-81
2023/05/25 08:14:55;;;;;;;418.70;31.60;;;;;;;19.28;62.95;98685.41;4201832;28;21188;-81
2023/05/25 08:16:58;;;;;;;374.40;32.47;;;;;;;19.32;63.22;98681.50;4194695;28;20633;-81
2023/05/25 08:19:01;;;;;;;345.97;33.53;;;;;;;19.11;63.66;98681.69;4202127;28;21087;-82
2023/05/25 08:21:04;;;;;;;346.30;36.90;;;;;;;18.91;63.73;98669.47;4179285;28;20634;-81
2023/05/25 08:23:08;;;;;;;347.40;31.13;;;;;;;18.93;64.56;98670.16;4189947;28;21210;-81
2023/05/25 08:25:11;;;;;;;348.03;34.33;;;;;;;18.89;65.58;98674.03;4192936;28;20710;-81
2023/05/25 08:27:15;;;;;;;351.17;34.67;;;;;;;18.79;64.55;98667.09;4185665;28;20706;-80
2023/05/25 08:29:18;;;;;;;346.83;34.43;;;;;;;18.63;65.05;98672.13;4179512;28;20663;-81
2023/05/25 08:31:23;;;;;;;285.23;16.83;;;;;;;18.46;64.83;98675.47;4201767;28;20638;-81
2023/05/25 08:33:26;;;;;;;344.87;33.40;;;;;;;18.37;65.68;98675.47;4205666;28;20639;-81
2023/05/25 08:35:29;;;;;;;346.80;33.83;;;;;;;18.38;65.74;98678.94;4191814;28;24075;-81
2023/05/25 08:37:33;;;;;;;363.40;32.73;;;;;;;18.43;66.31;98680.19;4203420;28;21260;-82
2023/05/25 08:39:36;;;;;;;347.30;32.47;;;;;;;18.69;66.18;98683.97;4184084;28;20633;-82
2023/05/25 08:41:42;;;;;;;355.53;32.10;;;;;;;18.80;65.35;98684.63;4200958;28;20621;-81
2023/05/25 08:43:45;;;;;;;346.70;42.20;;;;;;;19.04;66.02;98693.81;4207426;28;20682;-81
2023/05/25 08:45:49;;;;;;;344.17;28.13;;;;;;;19.36;66.56;98694.28;4198917;28;21285;-81
2023/05/25 08:47:59;;;;;;;346.40;33.97;;;;;;;19.66;64.40;98702.81;4201793;28;20660;-82
2023/05/25 08:50:03;;;;;;;344.47;32.87;;;;;;;19.92;64.78;98709.13;4197854;28;20630;-81
2023/05/25 08:52:10;;;;;;;345.53;29.27;;;;;;;20.33;66.05;98712.94;4191501;28;20616;-85
2023/05/25 08:54:13;;;;;;;353.77;30.80;;;;;;;20.74;63.78;98706.25;4198164;28;20632;-81
2023/05/25 08:56:20;;;;;;;345.37;29.73;;;;;;;20.50;61.94;98700.69;4186763;28;20714;-82
2023/05/25 08:58:30;;;;;;;346.47;28.47;;;;;;;20.24;63.65;98704.22;4188700;28;20732;-81
2023/05/25 09:00:35;;;;;;;329.10;29.50;;;;;;;20.57;64.47;98696.44;4195753;28;20703;-83
2023/05/25 09:02:41;;;;;;;334.57;29.20;;;;;;;20.67;63.25;98706.00;4201839;28;21214;-85
2023/05/25 09:04:46;;;;;;;348.43;31.50;;;;;;;20.49;62.52;98693.69;4203199;28;20637;-81
2023/05/25 09:06:49;;;;;;;346.33;30.67;;;;;;;20.24;63.18;98680.38;4198416;28;20716;-81
2023/05/25 09:09:12;;;;;;;343.87;31.10;;;;;;;20.52;63.45;98688.94;4201589;28;20660;-81
2023/05/25 09:11:15;;;;;;;344.47;29.87;;;;;;;20.63;61.25;98686.06;4197613;28;20714;-82
2023/05/25 09:13:37;;;;;;;379.27;37.70;;;;;;;20.76;63.33;98691.81;4197417;28;20620;-81
2023/05/25 09:15:40;;;;;;;342.37;26.10;;;;;;;20.88;62.70;98694.13;4196675;28;20667;-82
2023/05/25 09:17:43;;;;;;;386.13;35.73;;;;;;;20.81;61.72;98693.03;4187661;28;20669;-82
2023/05/25 09:19:50;;;;;;;364.80;30.13;;;;;;;20.37;62.39;98679.00;4195590;28;20635;-81
2023/05/25 09:21:53;;;;;;;347.17;33.73;;;;;;;20.43;63.77;98678.41;4200068;28;20674;-81
2023/05/25 09:24:16;;;;;;;397.87;30.37;;;;;;;20.80;62.50;98692.38;4197084;28;21037;-82
2023/05/25 09:26:20;;;;;;;359.17;28.63;;;;;;;20.82;62.18;98689.41;4181675;28;21025;-81